sensor_id;sensor_type;location;lat;lon;timestamp;P1;durP1;ratioP1;P2;durP2;ratioP2
47844;SDS011;33605;48.822;8.796;2023-08-30T00:01:50;2.77;;;2.57;;
47844;SDS011;33605;48.822;8.796;2023-08-30T00:04:16;2.50;;;2.30;;
47844;SDS011;33605;48.822;8.796;2023-08-30T00:06:42;2.73;;;2.53;;
47844;SDS011;33605;48.822;8.796;2023-08-30T00:09:08;2.90;;;2.70;;
47844;SDS011;33605;48.822;8.796;2023-08-30T00:11:33;2.83;;;2.63;;
47844;SDS011;33605;48.822;8.796;2023-08-30T00:14:04;3.70;;;2.93;;
47844;SDS011;33605;48.822;8.796;2023-08-30T00:16:30;2.77;;;2.57;;
47844;SDS011;33605;48.822;8.796;2023-08-30T00:18:56;2.70;;;2.50;;
47844;SDS011;33605;48.822;8.796;2023-08-30T00:21:22;2.50;;;2.37;;
47844;SDS011;33605;48.822;8.796;2023-08-30T00:23:48;2.77;;;2.53;;
47844;SDS011;33605;48.822;8.796;2023-08-30T00:26:14;2.40;;;2.20;;
47844;SDS011;33605;48.822;8.796;2023-08-30T00:28:40;2.90;;;2.70;;
47844;SDS011;33605;48.822;8.796;2023-08-30T00:31:06;2.80;;;2.60;;
47844;SDS011;33605;48.822;8.796;2023-08-30T00:33:32;2.30;;;2.20;;
47844;SDS011;33605;48.822;8.796;2023-08-30T00:35:58;2.40;;;2.30;;
47844;SDS011;33605;48.822;8.796;2023-08-30T00:38:26;3.13;;;2.40;;
47844;SDS011;33605;48.822;8.796;2023-08-30T00:40:52;2.53;;;2.33;;
47844;SDS011;33605;48.822;8.796;2023-08-30T00:43:19;2.10;;;2.00;;
47844;SDS011;33605;48.822;8.796;2023-08-30T00:45:45;2.20;;;2.10;;
47844;SDS011;33605;48.822;8.796;2023-08-30T00:48:12;2.33;;;2.13;;
47844;SDS011;33605;48.822;8.796;2023-08-30T00:50:38;2.73;;;2.30;;
47844;SDS011;33605;48.822;8.796;2023-08-30T00:53:05;3.10;;;2.10;;
47844;SDS011;33605;48.822;8.796;2023-08-30T00:55:32;2.37;;;2.17;;
47844;SDS011;33605;48.822;8.796;2023-08-30T00:57:59;2.90;;;2.43;;
47844;SDS011;33605;48.822;8.796;2023-08-30T01:00:25;2.70;;;2.40;;
47844;SDS011;33605;48.822;8.796;2023-08-30T01:02:52;2.50;;;2.40;;
47844;SDS011;33605;48.822;8.796;2023-08-30T01:05:18;2.30;;;2.20;;
47844;SDS011;33605;48.822;8.796;2023-08-30T01:07:44;2.20;;;2.10;;
47844;SDS011;33605;48.822;8.796;2023-08-30T01:10:10;2.63;;;2.43;;
47844;SDS011;33605;48.822;8.796;2023-08-30T01:12:45;2.53;;;2.33;;
47844;SDS011;33605;48.822;8.796;2023-08-30T01:15:18;2.93;;;2.73;;
47844;SDS011;33605;48.822;8.796;2023-08-30T01:17:44;3.60;;;2.23;;
47844;SDS011;33605;48.822;8.796;2023-08-30T01:20:12;3.10;;;2.40;;
47844;SDS011;33605;48.822;8.796;2023-08-30T01:25:20;3.20;;;2.53;;
47844;SDS011;33605;48.822;8.796;2023-08-30T01:27:51;2.67;;;2.47;;
47844;SDS011;33605;48.822;8.796;2023-08-30T01:30:17;7.30;;;2.57;;
47844;SDS011;33605;48.822;8.796;2023-08-30T01:32:45;2.60;;;2.40;;
47844;SDS011;33605;48.822;8.796;2023-08-30T01:35:11;2.70;;;2.50;;
47844;SDS011;33605;48.822;8.796;2023-08-30T01:37:42;2.30;;;2.20;;
47844;SDS011;33605;48.822;8.796;2023-08-30T01:40:10;2.50;;;2.30;;
47844;SDS011;33605;48.822;8.796;2023-08-30T01:42:37;2.23;;;2.07;;
47844;SDS011;33605;48.822;8.796;2023-08-30T01:45:04;2.40;;;2.20;;
47844;SDS011;33605;48.822;8.796;2023-08-30T01:47:30;2.27;;;2.17;;
47844;SDS011;33605;48.822;8.796;2023-08-30T01:49:58;2.83;;;2.20;;
47844;SDS011;33605;48.822;8.796;2023-08-30T01:52:24;2.47;;;2.27;;
47844;SDS011;33605;48.822;8.796;2023-08-30T01:54:51;2.30;;;2.10;;
47844;SDS011;33605;48.822;8.796;2023-08-30T01:57:18;3.10;;;2.90;;
47844;SDS011;33605;48.822;8.796;2023-08-30T01:59:44;2.33;;;2.13;;
47844;SDS011;33605;48.822;8.796;2023-08-30T02:02:10;2.70;;;2.50;;
47844;SDS011;33605;48.822;8.796;2023-08-30T02:04:36;2.37;;;2.17;;
47844;SDS011;33605;48.822;8.796;2023-08-30T02:07:03;2.07;;;1.93;;
47844;SDS011;33605;48.822;8.796;2023-08-30T02:09:31;5.00;;;2.60;;
47844;SDS011;33605;48.822;8.796;2023-08-30T02:12:00;6.70;;;1.97;;
47844;SDS011;33605;48.822;8.796;2023-08-30T02:14:28;2.47;;;2.30;;
47844;SDS011;33605;48.822;8.796;2023-08-30T02:16:55;2.70;;;2.50;;
47844;SDS011;33605;48.822;8.796;2023-08-30T02:19:21;2.70;;;2.50;;
47844;SDS011;33605;48.822;8.796;2023-08-30T02:21:48;2.53;;;2.33;;
47844;SDS011;33605;48.822;8.796;2023-08-30T02:24:14;2.23;;;2.13;;
47844;SDS011;33605;48.822;8.796;2023-08-30T02:26:40;2.57;;;2.37;;
47844;SDS011;33605;48.822;8.796;2023-08-30T02:29:06;2.77;;;2.57;;
47844;SDS011;33605;48.822;8.796;2023-08-30T02:31:33;2.77;;;2.57;;
47844;SDS011;33605;48.822;8.796;2023-08-30T02:33:59;2.87;;;2.67;;
47844;SDS011;33605;48.822;8.796;2023-08-30T02:36:25;2.97;;;2.63;;
47844;SDS011;33605;48.822;8.796;2023-08-30T02:38:51;4.53;;;4.20;;
47844;SDS011;33605;48.822;8.796;2023-08-30T02:41:17;3.63;;;3.33;;
47844;SDS011;33605;48.822;8.796;2023-08-30T02:43:43;2.90;;;2.70;;
47844;SDS011;33605;48.822;8.796;2023-08-30T02:46:09;2.63;;;2.43;;
47844;SDS011;33605;48.822;8.796;2023-08-30T02:48:35;4.20;;;2.50;;
47844;SDS011;33605;48.822;8.796;2023-08-30T02:51:00;2.93;;;2.73;;
47844;SDS011;33605;48.822;8.796;2023-08-30T02:53:26;2.97;;;2.70;;
47844;SDS011;33605;48.822;8.796;2023-08-30T02:55:52;3.10;;;2.80;;
47844;SDS011;33605;48.822;8.796;2023-08-30T02:58:20;2.57;;;2.37;;
47844;SDS011;33605;48.822;8.796;2023-08-30T03:00:46;3.10;;;2.90;;
47844;SDS011;33605;48.822;8.796;2023-08-30T03:03:12;3.00;;;2.80;;
47844;SDS011;33605;48.822;8.796;2023-08-30T03:05:38;3.00;;;2.80;;
47844;SDS011;33605;48.822;8.796;2023-08-30T03:08:05;3.17;;;2.97;;
47844;SDS011;33605;48.822;8.796;2023-08-30T03:10:31;2.83;;;2.63;;
47844;SDS011;33605;48.822;8.796;2023-08-30T03:12:57;3.03;;;2.83;;
47844;SDS011;33605;48.822;8.796;2023-08-30T03:15:23;2.50;;;2.40;;
47844;SDS011;33605;48.822;8.796;2023-08-30T03:17:49;3.00;;;2.80;;
47844;SDS011;33605;48.822;8.796;2023-08-30T03:20:15;4.13;;;2.80;;
47844;SDS011;33605;48.822;8.796;2023-08-30T03:22:41;2.60;;;2.40;;
47844;SDS011;33605;48.822;8.796;2023-08-30T03:25:07;3.23;;;2.93;;
47844;SDS011;33605;48.822;8.796;2023-08-30T03:27:34;2.60;;;2.40;;
47844;SDS011;33605;48.822;8.796;2023-08-30T03:30:01;2.83;;;2.53;;
47844;SDS011;33605;48.822;8.796;2023-08-30T03:32:26;2.73;;;2.53;;
47844;SDS011;33605;48.822;8.796;2023-08-30T03:34:53;5.13;;;2.70;;
47844;SDS011;33605;48.822;8.796;2023-08-30T03:37:19;3.57;;;3.27;;
47844;SDS011;33605;48.822;8.796;2023-08-30T03:39:45;4.13;;;2.90;;
47844;SDS011;33605;48.822;8.796;2023-08-30T03:42:11;4.13;;;3.03;;
47844;SDS011;33605;48.822;8.796;2023-08-30T03:44:37;6.17;;;3.57;;
47844;SDS011;33605;48.822;8.796;2023-08-30T03:47:04;3.10;;;2.90;;
47844;SDS011;33605;48.822;8.796;2023-08-30T03:49:30;3.10;;;2.80;;
47844;SDS011;33605;48.822;8.796;2023-08-30T03:51:58;3.00;;;2.80;;
47844;SDS011;33605;48.822;8.796;2023-08-30T03:54:24;3.47;;;2.77;;
47844;SDS011;33605;48.822;8.796;2023-08-30T03:56:50;3.27;;;2.73;;
47844;SDS011;33605;48.822;8.796;2023-08-30T03:59:16;3.23;;;2.93;;
47844;SDS011;33605;48.822;8.796;2023-08-30T04:01:42;3.37;;;2.70;;
47844;SDS011;33605;48.822;8.796;2023-08-30T04:04:08;3.03;;;2.83;;
47844;SDS011;33605;48.822;8.796;2023-08-30T04:06:34;2.97;;;2.67;;
47844;SDS011;33605;48.822;8.796;2023-08-30T04:09:00;3.07;;;2.87;;
47844;SDS011;33605;48.822;8.796;2023-08-30T04:11:26;2.77;;;2.57;;
47844;SDS011;33605;48.822;8.796;2023-08-30T04:13:52;4.57;;;2.60;;
47844;SDS011;33605;48.822;8.796;2023-08-30T04:16:18;3.40;;;2.40;;
47844;SDS011;33605;48.822;8.796;2023-08-30T04:18:44;4.33;;;2.50;;
47844;SDS011;33605;48.822;8.796;2023-08-30T04:21:10;2.50;;;2.30;;
47844;SDS011;33605;48.822;8.796;2023-08-30T04:23:36;5.10;;;2.43;;
47844;SDS011;33605;48.822;8.796;2023-08-30T04:26:02;3.40;;;2.60;;
47844;SDS011;33605;48.822;8.796;2023-08-30T04:28:28;2.53;;;2.33;;
47844;SDS011;33605;48.822;8.796;2023-08-30T04:30:54;4.80;;;2.70;;
47844;SDS011;33605;48.822;8.796;2023-08-30T04:33:20;3.20;;;3.00;;
47844;SDS011;33605;48.822;8.796;2023-08-30T04:35:50;3.23;;;3.00;;
47844;SDS011;33605;48.822;8.796;2023-08-30T04:38:16;3.90;;;3.60;;
47844;SDS011;33605;48.822;8.796;2023-08-30T04:40:42;3.93;;;3.63;;
47844;SDS011;33605;48.822;8.796;2023-08-30T04:43:08;8.03;;;4.50;;
47844;SDS011;33605;48.822;8.796;2023-08-30T04:45:34;3.77;;;3.47;;
47844;SDS011;33605;48.822;8.796;2023-08-30T04:48:00;3.87;;;3.47;;
47844;SDS011;33605;48.822;8.796;2023-08-30T04:50:26;3.70;;;3.40;;
47844;SDS011;33605;48.822;8.796;2023-08-30T04:52:52;4.47;;;4.07;;
47844;SDS011;33605;48.822;8.796;2023-08-30T04:55:18;3.93;;;3.60;;
47844;SDS011;33605;48.822;8.796;2023-08-30T04:57:44;4.10;;;3.80;;
47844;SDS011;33605;48.822;8.796;2023-08-30T05:00:12;3.83;;;3.50;;
47844;SDS011;33605;48.822;8.796;2023-08-30T05:02:38;3.43;;;3.13;;
47844;SDS011;33605;48.822;8.796;2023-08-30T05:05:05;5.03;;;3.40;;
47844;SDS011;33605;48.822;8.796;2023-08-30T05:07:32;7.53;;;3.97;;
47844;SDS011;33605;48.822;8.796;2023-08-30T05:09:58;4.13;;;3.77;;
47844;SDS011;33605;48.822;8.796;2023-08-30T05:12:24;4.63;;;4.10;;
47844;SDS011;33605;48.822;8.796;2023-08-30T05:14:50;4.30;;;3.97;;
47844;SDS011;33605;48.822;8.796;2023-08-30T05:17:16;6.53;;;4.20;;
47844;SDS011;33605;48.822;8.796;2023-08-30T05:19:42;5.80;;;3.90;;
47844;SDS011;33605;48.822;8.796;2023-08-30T05:22:08;4.73;;;4.43;;
47844;SDS011;33605;48.822;8.796;2023-08-30T05:24:34;4.43;;;4.13;;
47844;SDS011;33605;48.822;8.796;2023-08-30T05:27:00;6.10;;;4.30;;
47844;SDS011;33605;48.822;8.796;2023-08-30T05:29:26;7.00;;;4.00;;
47844;SDS011;33605;48.822;8.796;2023-08-30T05:31:52;5.63;;;3.80;;
47844;SDS011;33605;48.822;8.796;2023-08-30T05:34:18;4.20;;;3.90;;
47844;SDS011;33605;48.822;8.796;2023-08-30T05:36:44;4.17;;;3.80;;
47844;SDS011;33605;48.822;8.796;2023-08-30T05:39:10;4.50;;;4.10;;
47844;SDS011;33605;48.822;8.796;2023-08-30T05:41:36;4.70;;;4.17;;
47844;SDS011;33605;48.822;8.796;2023-08-30T05:44:02;6.20;;;3.70;;
47844;SDS011;33605;48.822;8.796;2023-08-30T05:46:28;4.57;;;4.27;;
47844;SDS011;33605;48.822;8.796;2023-08-30T05:48:55;3.60;;;3.30;;
47844;SDS011;33605;48.822;8.796;2023-08-30T05:51:21;5.10;;;4.50;;
47844;SDS011;33605;48.822;8.796;2023-08-30T05:53:47;4.67;;;4.27;;
47844;SDS011;33605;48.822;8.796;2023-08-30T05:56:13;4.80;;;4.30;;
47844;SDS011;33605;48.822;8.796;2023-08-30T05:58:39;4.93;;;4.53;;
47844;SDS011;33605;48.822;8.796;2023-08-30T06:01:05;4.00;;;3.70;;
47844;SDS011;33605;48.822;8.796;2023-08-30T06:03:32;4.67;;;4.30;;
47844;SDS011;33605;48.822;8.796;2023-08-30T06:05:59;4.17;;;3.87;;
47844;SDS011;33605;48.822;8.796;2023-08-30T06:08:26;4.47;;;4.07;;
47844;SDS011;33605;48.822;8.796;2023-08-30T06:10:52;4.00;;;3.70;;
47844;SDS011;33605;48.822;8.796;2023-08-30T06:13:18;4.10;;;3.80;;
47844;SDS011;33605;48.822;8.796;2023-08-30T06:15:44;4.47;;;3.73;;
47844;SDS011;33605;48.822;8.796;2023-08-30T06:18:10;4.47;;;4.10;;
47844;SDS011;33605;48.822;8.796;2023-08-30T06:20:39;4.57;;;3.80;;
47844;SDS011;33605;48.822;8.796;2023-08-30T06:23:06;4.07;;;3.77;;
47844;SDS011;33605;48.822;8.796;2023-08-30T06:25:32;4.00;;;3.70;;
47844;SDS011;33605;48.822;8.796;2023-08-30T06:27:59;8.33;;;3.83;;
47844;SDS011;33605;48.822;8.796;2023-08-30T06:30:26;4.20;;;3.90;;
47844;SDS011;33605;48.822;8.796;2023-08-30T06:32:53;4.40;;;4.07;;
47844;SDS011;33605;48.822;8.796;2023-08-30T06:35:19;3.97;;;3.57;;
47844;SDS011;33605;48.822;8.796;2023-08-30T06:37:45;3.70;;;3.40;;
47844;SDS011;33605;48.822;8.796;2023-08-30T06:40:11;4.00;;;3.70;;
47844;SDS011;33605;48.822;8.796;2023-08-30T06:42:37;3.80;;;3.50;;
47844;SDS011;33605;48.822;8.796;2023-08-30T06:45:03;3.63;;;3.33;;
47844;SDS011;33605;48.822;8.796;2023-08-30T06:47:29;3.73;;;3.43;;
47844;SDS011;33605;48.822;8.796;2023-08-30T06:49:55;4.20;;;3.60;;
47844;SDS011;33605;48.822;8.796;2023-08-30T06:52:22;5.13;;;3.70;;
47844;SDS011;33605;48.822;8.796;2023-08-30T06:54:48;3.50;;;3.20;;
47844;SDS011;33605;48.822;8.796;2023-08-30T06:57:14;3.50;;;3.20;;
47844;SDS011;33605;48.822;8.796;2023-08-30T06:59:40;3.83;;;3.53;;
47844;SDS011;33605;48.822;8.796;2023-08-30T07:02:06;3.53;;;3.23;;
47844;SDS011;33605;48.822;8.796;2023-08-30T07:04:32;4.03;;;3.73;;
47844;SDS011;33605;48.822;8.796;2023-08-30T07:06:58;5.70;;;4.10;;
47844;SDS011;33605;48.822;8.796;2023-08-30T07:09:24;3.10;;;2.90;;
47844;SDS011;33605;48.822;8.796;2023-08-30T07:11:54;3.93;;;3.63;;
47844;SDS011;33605;48.822;8.796;2023-08-30T07:14:20;3.60;;;3.33;;
47844;SDS011;33605;48.822;8.796;2023-08-30T07:16:46;4.07;;;3.73;;
47844;SDS011;33605;48.822;8.796;2023-08-30T07:19:14;4.07;;;3.67;;
47844;SDS011;33605;48.822;8.796;2023-08-30T07:21:41;3.23;;;3.03;;
47844;SDS011;33605;48.822;8.796;2023-08-30T07:24:07;4.03;;;3.73;;
47844;SDS011;33605;48.822;8.796;2023-08-30T07:26:33;4.30;;;4.00;;
47844;SDS011;33605;48.822;8.796;2023-08-30T07:28:59;4.93;;;3.87;;
47844;SDS011;33605;48.822;8.796;2023-08-30T07:31:25;4.20;;;3.80;;
47844;SDS011;33605;48.822;8.796;2023-08-30T07:33:51;4.07;;;3.77;;
47844;SDS011;33605;48.822;8.796;2023-08-30T07:36:17;3.73;;;3.43;;
47844;SDS011;33605;48.822;8.796;2023-08-30T07:38:43;4.57;;;4.13;;
47844;SDS011;33605;48.822;8.796;2023-08-30T07:41:09;3.80;;;3.50;;
47844;SDS011;33605;48.822;8.796;2023-08-30T07:43:35;4.03;;;3.73;;
47844;SDS011;33605;48.822;8.796;2023-08-30T07:46:01;3.10;;;2.90;;
47844;SDS011;33605;48.822;8.796;2023-08-30T07:48:27;3.77;;;3.47;;
47844;SDS011;33605;48.822;8.796;2023-08-30T07:50:56;3.70;;;3.40;;
47844;SDS011;33605;48.822;8.796;2023-08-30T07:53:22;4.63;;;3.90;;
47844;SDS011;33605;48.822;8.796;2023-08-30T07:55:48;4.07;;;3.47;;
47844;SDS011;33605;48.822;8.796;2023-08-30T07:58:17;3.33;;;3.03;;
47844;SDS011;33605;48.822;8.796;2023-08-30T08:00:43;3.63;;;3.33;;
47844;SDS011;33605;48.822;8.796;2023-08-30T08:03:09;4.10;;;3.80;;
47844;SDS011;33605;48.822;8.796;2023-08-30T08:05:36;3.60;;;3.30;;
47844;SDS011;33605;48.822;8.796;2023-08-30T08:08:02;3.67;;;3.37;;
47844;SDS011;33605;48.822;8.796;2023-08-30T08:10:31;4.73;;;3.03;;
47844;SDS011;33605;48.822;8.796;2023-08-30T08:12:58;3.67;;;3.37;;
47844;SDS011;33605;48.822;8.796;2023-08-30T08:15:24;3.60;;;3.30;;
47844;SDS011;33605;48.822;8.796;2023-08-30T08:17:50;4.23;;;3.53;;
47844;SDS011;33605;48.822;8.796;2023-08-30T08:20:16;4.00;;;2.90;;
47844;SDS011;33605;48.822;8.796;2023-08-30T08:22:42;3.77;;;3.47;;
47844;SDS011;33605;48.822;8.796;2023-08-30T08:25:08;3.67;;;3.37;;
47844;SDS011;33605;48.822;8.796;2023-08-30T08:27:37;3.50;;;3.20;;
47844;SDS011;33605;48.822;8.796;2023-08-30T08:30:04;4.00;;;3.27;;
47844;SDS011;33605;48.822;8.796;2023-08-30T08:32:30;3.80;;;3.50;;
47844;SDS011;33605;48.822;8.796;2023-08-30T08:34:57;3.20;;;2.87;;
47844;SDS011;33605;48.822;8.796;2023-08-30T08:37:23;3.33;;;3.00;;
47844;SDS011;33605;48.822;8.796;2023-08-30T08:39:49;3.73;;;2.83;;
47844;SDS011;33605;48.822;8.796;2023-08-30T08:42:19;3.90;;;3.60;;
47844;SDS011;33605;48.822;8.796;2023-08-30T08:44:51;3.23;;;2.93;;
47844;SDS011;33605;48.822;8.796;2023-08-30T08:47:19;4.10;;;3.37;;
47844;SDS011;33605;48.822;8.796;2023-08-30T08:49:45;3.83;;;3.40;;
47844;SDS011;33605;48.822;8.796;2023-08-30T08:52:12;4.03;;;3.70;;
47844;SDS011;33605;48.822;8.796;2023-08-30T08:54:39;3.77;;;3.00;;
47844;SDS011;33605;48.822;8.796;2023-08-30T08:57:06;3.27;;;2.97;;
47844;SDS011;33605;48.822;8.796;2023-08-30T08:59:33;3.60;;;3.33;;
47844;SDS011;33605;48.822;8.796;2023-08-30T09:02:03;7.93;;;3.43;;
47844;SDS011;33605;48.822;8.796;2023-08-30T09:04:30;4.37;;;3.20;;
47844;SDS011;33605;48.822;8.796;2023-08-30T09:06:56;3.00;;;2.73;;
47844;SDS011;33605;48.822;8.796;2023-08-30T09:09:24;3.00;;;2.80;;
47844;SDS011;33605;48.822;8.796;2023-08-30T09:11:50;3.50;;;3.20;;
47844;SDS011;33605;48.822;8.796;2023-08-30T09:14:17;3.60;;;3.30;;
47844;SDS011;33605;48.822;8.796;2023-08-30T09:16:43;3.60;;;3.30;;
47844;SDS011;33605;48.822;8.796;2023-08-30T09:19:09;4.13;;;3.53;;
47844;SDS011;33605;48.822;8.796;2023-08-30T09:21:35;4.03;;;3.63;;
47844;SDS011;33605;48.822;8.796;2023-08-30T09:24:05;3.60;;;3.30;;
47844;SDS011;33605;48.822;8.796;2023-08-30T09:26:31;3.50;;;3.20;;
47844;SDS011;33605;48.822;8.796;2023-08-30T09:29:04;3.80;;;3.50;;
47844;SDS011;33605;48.822;8.796;2023-08-30T09:31:37;3.23;;;3.03;;
47844;SDS011;33605;48.822;8.796;2023-08-30T09:34:04;4.50;;;3.20;;
47844;SDS011;33605;48.822;8.796;2023-08-30T09:36:40;3.27;;;3.07;;
47844;SDS011;33605;48.822;8.796;2023-08-30T09:41:35;3.60;;;3.27;;
47844;SDS011;33605;48.822;8.796;2023-08-30T09:44:20;3.90;;;2.60;;
47844;SDS011;33605;48.822;8.796;2023-08-30T09:46:49;3.50;;;3.20;;
47844;SDS011;33605;48.822;8.796;2023-08-30T09:49:17;3.40;;;3.10;;
47844;SDS011;33605;48.822;8.796;2023-08-30T09:51:43;4.10;;;3.20;;
47844;SDS011;33605;48.822;8.796;2023-08-30T09:54:21;3.10;;;2.90;;
47844;SDS011;33605;48.822;8.796;2023-08-30T09:56:48;2.60;;;2.40;;
47844;SDS011;33605;48.822;8.796;2023-08-30T09:59:17;2.93;;;2.67;;
47844;SDS011;33605;48.822;8.796;2023-08-30T10:01:44;3.57;;;3.27;;
47844;SDS011;33605;48.822;8.796;2023-08-30T10:04:12;3.00;;;2.80;;
47844;SDS011;33605;48.822;8.796;2023-08-30T10:06:38;2.90;;;2.70;;
47844;SDS011;33605;48.822;8.796;2023-08-30T10:09:06;3.20;;;2.90;;
47844;SDS011;33605;48.822;8.796;2023-08-30T10:11:33;2.83;;;2.40;;
47844;SDS011;33605;48.822;8.796;2023-08-30T10:14:00;3.60;;;3.30;;
47844;SDS011;33605;48.822;8.796;2023-08-30T10:16:26;2.90;;;2.70;;
47844;SDS011;33605;48.822;8.796;2023-08-30T10:18:54;2.83;;;2.63;;
47844;SDS011;33605;48.822;8.796;2023-08-30T10:21:24;3.10;;;2.90;;
47844;SDS011;33605;48.822;8.796;2023-08-30T10:23:52;4.33;;;3.30;;
47844;SDS011;33605;48.822;8.796;2023-08-30T10:26:20;3.20;;;3.00;;
47844;SDS011;33605;48.822;8.796;2023-08-30T10:28:48;3.00;;;2.80;;
47844;SDS011;33605;48.822;8.796;2023-08-30T10:31:14;2.83;;;2.63;;
47844;SDS011;33605;48.822;8.796;2023-08-30T10:33:47;3.93;;;3.10;;
47844;SDS011;33605;48.822;8.796;2023-08-30T10:36:19;3.53;;;2.97;;
47844;SDS011;33605;48.822;8.796;2023-08-30T10:38:48;3.10;;;2.80;;
47844;SDS011;33605;48.822;8.796;2023-08-30T10:41:19;3.00;;;2.70;;
47844;SDS011;33605;48.822;8.796;2023-08-30T10:43:48;3.40;;;3.10;;
47844;SDS011;33605;48.822;8.796;2023-08-30T10:46:14;5.10;;;3.07;;
47844;SDS011;33605;48.822;8.796;2023-08-30T10:48:40;2.73;;;2.47;;
47844;SDS011;33605;48.822;8.796;2023-08-30T10:51:21;3.13;;;2.70;;
47844;SDS011;33605;48.822;8.796;2023-08-30T10:53:57;2.97;;;2.77;;
47844;SDS011;33605;48.822;8.796;2023-08-30T10:56:27;2.87;;;2.67;;
47844;SDS011;33605;48.822;8.796;2023-08-30T10:58:53;3.00;;;2.80;;
47844;SDS011;33605;48.822;8.796;2023-08-30T11:01:19;2.97;;;2.70;;
47844;SDS011;33605;48.822;8.796;2023-08-30T11:03:46;3.00;;;2.80;;
47844;SDS011;33605;48.822;8.796;2023-08-30T11:06:15;2.97;;;2.77;;
47844;SDS011;33605;48.822;8.796;2023-08-30T11:08:42;3.87;;;2.97;;
47844;SDS011;33605;48.822;8.796;2023-08-30T11:11:09;3.27;;;3.07;;
47844;SDS011;33605;48.822;8.796;2023-08-30T11:13:37;3.50;;;3.20;;
47844;SDS011;33605;48.822;8.796;2023-08-30T11:16:03;3.13;;;2.93;;
47844;SDS011;33605;48.822;8.796;2023-08-30T11:18:29;3.17;;;2.97;;
47844;SDS011;33605;48.822;8.796;2023-08-30T11:21:02;3.90;;;3.60;;
47844;SDS011;33605;48.822;8.796;2023-08-30T11:23:28;4.00;;;3.50;;
47844;SDS011;33605;48.822;8.796;2023-08-30T11:25:54;3.20;;;3.00;;
47844;SDS011;33605;48.822;8.796;2023-08-30T11:28:24;3.13;;;2.83;;
47844;SDS011;33605;48.822;8.796;2023-08-30T11:30:53;2.30;;;2.20;;
47844;SDS011;33605;48.822;8.796;2023-08-30T11:33:20;2.97;;;2.67;;
47844;SDS011;33605;48.822;8.796;2023-08-30T11:35:48;2.37;;;2.17;;
47844;SDS011;33605;48.822;8.796;2023-08-30T11:38:16;2.53;;;2.33;;
47844;SDS011;33605;48.822;8.796;2023-08-30T11:40:43;2.47;;;2.30;;
47844;SDS011;33605;48.822;8.796;2023-08-30T11:43:10;2.97;;;2.60;;
47844;SDS011;33605;48.822;8.796;2023-08-30T11:45:36;2.57;;;2.37;;
47844;SDS011;33605;48.822;8.796;2023-08-30T11:48:02;2.53;;;2.33;;
47844;SDS011;33605;48.822;8.796;2023-08-30T11:50:28;3.90;;;2.53;;
47844;SDS011;33605;48.822;8.796;2023-08-30T11:52:55;2.43;;;2.27;;
47844;SDS011;33605;48.822;8.796;2023-08-30T11:55:21;2.50;;;2.30;;
47844;SDS011;33605;48.822;8.796;2023-08-30T11:57:50;2.30;;;2.10;;
47844;SDS011;33605;48.822;8.796;2023-08-30T12:00:20;3.23;;;2.20;;
47844;SDS011;33605;48.822;8.796;2023-08-30T12:02:46;2.60;;;2.40;;
47844;SDS011;33605;48.822;8.796;2023-08-30T12:05:13;2.90;;;2.40;;
47844;SDS011;33605;48.822;8.796;2023-08-30T12:07:40;2.20;;;2.00;;
47844;SDS011;33605;48.822;8.796;2023-08-30T12:10:09;4.27;;;2.20;;
47844;SDS011;33605;48.822;8.796;2023-08-30T12:12:36;2.17;;;2.03;;
47844;SDS011;33605;48.822;8.796;2023-08-30T12:15:12;2.10;;;1.93;;
47844;SDS011;33605;48.822;8.796;2023-08-30T12:17:38;2.47;;;2.17;;
47844;SDS011;33605;48.822;8.796;2023-08-30T12:20:04;2.40;;;2.20;;
47844;SDS011;33605;48.822;8.796;2023-08-30T12:22:40;2.63;;;2.43;;
47844;SDS011;33605;48.822;8.796;2023-08-30T12:28:02;2.50;;;2.20;;
47844;SDS011;33605;48.822;8.796;2023-08-30T12:30:28;2.17;;;1.97;;
47844;SDS011;33605;48.822;8.796;2023-08-30T12:33:00;5.40;;;2.77;;
47844;SDS011;33605;48.822;8.796;2023-08-30T12:35:28;3.23;;;2.80;;
47844;SDS011;33605;48.822;8.796;2023-08-30T12:37:54;3.20;;;2.63;;
47844;SDS011;33605;48.822;8.796;2023-08-30T12:40:20;2.70;;;2.50;;
47844;SDS011;33605;48.822;8.796;2023-08-30T12:42:46;2.93;;;2.20;;
47844;SDS011;33605;48.822;8.796;2023-08-30T12:45:12;4.00;;;1.70;;
47844;SDS011;33605;48.822;8.796;2023-08-30T12:47:38;2.50;;;2.20;;
47844;SDS011;33605;48.822;8.796;2023-08-30T12:50:04;2.30;;;2.10;;
47844;SDS011;33605;48.822;8.796;2023-08-30T12:52:30;2.07;;;1.97;;
47844;SDS011;33605;48.822;8.796;2023-08-30T12:54:57;2.23;;;2.03;;
47844;SDS011;33605;48.822;8.796;2023-08-30T12:57:23;2.60;;;1.83;;
47844;SDS011;33605;48.822;8.796;2023-08-30T12:59:48;5.00;;;2.30;;
47844;SDS011;33605;48.822;8.796;2023-08-30T13:02:14;2.90;;;2.20;;
47844;SDS011;33605;48.822;8.796;2023-08-30T13:04:40;3.70;;;2.40;;
47844;SDS011;33605;48.822;8.796;2023-08-30T13:07:07;2.53;;;2.33;;
47844;SDS011;33605;48.822;8.796;2023-08-30T13:09:33;3.27;;;3.00;;
47844;SDS011;33605;48.822;8.796;2023-08-30T13:11:59;3.40;;;2.37;;
47844;SDS011;33605;48.822;8.796;2023-08-30T13:14:25;2.90;;;2.70;;
47844;SDS011;33605;48.822;8.796;2023-08-30T13:16:51;2.53;;;2.33;;
47844;SDS011;33605;48.822;8.796;2023-08-30T13:19:17;2.97;;;2.77;;
47844;SDS011;33605;48.822;8.796;2023-08-30T13:21:43;3.50;;;2.70;;
47844;SDS011;33605;48.822;8.796;2023-08-30T13:24:12;2.40;;;2.20;;
47844;SDS011;33605;48.822;8.796;2023-08-30T13:26:38;2.40;;;2.20;;
47844;SDS011;33605;48.822;8.796;2023-08-30T13:29:04;2.10;;;1.90;;
47844;SDS011;33605;48.822;8.796;2023-08-30T13:31:30;2.00;;;1.90;;
47844;SDS011;33605;48.822;8.796;2023-08-30T13:33:56;2.10;;;1.90;;
47844;SDS011;33605;48.822;8.796;2023-08-30T13:36:23;2.30;;;2.10;;
47844;SDS011;33605;48.822;8.796;2023-08-30T13:38:49;2.53;;;2.30;;
47844;SDS011;33605;48.822;8.796;2023-08-30T13:41:15;2.50;;;2.30;;
47844;SDS011;33605;48.822;8.796;2023-08-30T13:43:41;2.40;;;2.20;;
47844;SDS011;33605;48.822;8.796;2023-08-30T13:46:07;2.80;;;2.60;;
47844;SDS011;33605;48.822;8.796;2023-08-30T13:48:33;3.40;;;2.40;;
47844;SDS011;33605;48.822;8.796;2023-08-30T13:50:59;2.63;;;2.43;;
47844;SDS011;33605;48.822;8.796;2023-08-30T13:53:25;2.80;;;2.60;;
47844;SDS011;33605;48.822;8.796;2023-08-30T13:55:51;3.80;;;2.50;;
47844;SDS011;33605;48.822;8.796;2023-08-30T13:58:22;2.60;;;2.33;;
47844;SDS011;33605;48.822;8.796;2023-08-30T14:00:48;2.17;;;2.00;;
47844;SDS011;33605;48.822;8.796;2023-08-30T14:03:14;2.63;;;2.43;;
47844;SDS011;33605;48.822;8.796;2023-08-30T14:05:40;2.57;;;2.37;;
47844;SDS011;33605;48.822;8.796;2023-08-30T14:08:06;2.90;;;2.07;;
47844;SDS011;33605;48.822;8.796;2023-08-30T14:10:32;2.83;;;2.17;;
47844;SDS011;33605;48.822;8.796;2023-08-30T14:12:58;3.20;;;2.40;;
47844;SDS011;33605;48.822;8.796;2023-08-30T14:15:24;5.40;;;2.40;;
47844;SDS011;33605;48.822;8.796;2023-08-30T14:17:50;5.67;;;2.40;;
47844;SDS011;33605;48.822;8.796;2023-08-30T14:20:19;3.93;;;2.20;;
47844;SDS011;33605;48.822;8.796;2023-08-30T14:22:45;2.17;;;2.07;;
47844;SDS011;33605;48.822;8.796;2023-08-30T14:25:13;2.97;;;2.77;;
47844;SDS011;33605;48.822;8.796;2023-08-30T14:27:39;2.73;;;2.30;;
47844;SDS011;33605;48.822;8.796;2023-08-30T14:30:05;2.37;;;2.23;;
47844;SDS011;33605;48.822;8.796;2023-08-30T14:32:32;2.70;;;2.50;;
47844;SDS011;33605;48.822;8.796;2023-08-30T14:34:58;3.43;;;2.33;;
47844;SDS011;33605;48.822;8.796;2023-08-30T14:37:23;2.40;;;2.20;;
47844;SDS011;33605;48.822;8.796;2023-08-30T14:39:52;2.60;;;2.40;;
47844;SDS011;33605;48.822;8.796;2023-08-30T14:42:19;3.40;;;2.97;;
47844;SDS011;33605;48.822;8.796;2023-08-30T14:44:48;2.33;;;2.23;;
47844;SDS011;33605;48.822;8.796;2023-08-30T14:47:14;2.63;;;2.43;;
47844;SDS011;33605;48.822;8.796;2023-08-30T14:49:40;2.90;;;2.60;;
47844;SDS011;33605;48.822;8.796;2023-08-30T14:52:06;2.30;;;2.10;;
47844;SDS011;33605;48.822;8.796;2023-08-30T14:54:32;2.80;;;2.43;;